Time;durP1;ratioP1;P1;durP2;ratioP2;P2;SDS_P1;SDS_P2;PMS_P1;PMS_P2;Temp;Humidity;BMP_temperature;BMP_pressure;BME280_temperature;BME280_humidity;BME280_pressure;Samples;Min_cycle;Max_cycle;Signal;HPM_P1;HPM_P2
2023/04/27 00:00:17;;;;;;;;;1.00;1.00;;;;;21.85;45.50;100885.48;111624;1250;19430;-41
2023/04/27 00:03:06;;;;;;;;;1.00;1.00;;;;;21.84;45.39;100882.31;111712;1266;22214;-41
2023/04/27 00:05:33;;;;;;;;;1.00;1.00;;;;;21.85;45.51;100884.31;112010;1250;21540;-40
2023/04/27 00:08:01;;;;;;;;;1.00;1.00;;;;;21.85;45.48;100878.76;111585;1266;18842;-40
2023/04/27 00:10:28;;;;;;;;;1.00;1.00;;;;;21.85;45.32;100877.08;111970;1250;21008;-40
2023/04/27 00:12:56;;;;;;;;;1.00;1.00;;;;;21.84;45.42;100879.67;111592;1266;21514;-39
2023/04/27 00:15:23;;;;;;;;;1.00;1.00;;;;;21.83;45.41;100875.09;112047;1266;19610;-41
2023/04/27 00:17:50;;;;;;;;;1.00;1.00;;;;;21.84;45.21;100880.71;111651;1266;21168;-40
2023/04/27 00:20:19;;;;;;;;;1.00;1.00;;;;;21.84;45.26;100882.48;112079;1250;21555;-42
2023/04/27 00:22:46;;;;;;;;;1.00;1.00;;;;;21.84;45.50;100885.73;111522;1252;19629;-40
2023/04/27 00:25:14;;;;;;;;;1.00;1.00;;;;;21.83;45.46;100884.41;111863;1266;20615;-40
2023/04/27 00:27:41;;;;;;;;;1.00;1.00;;;;;21.83;45.39;100884.94;111527;1266;21465;-40
2023/04/27 00:30:09;;;;;;;;;1.00;1.00;;;;;21.83;45.42;100890.73;111875;1266;19580;-40
2023/04/27 00:32:36;;;;;;;;;1.00;1.00;;;;;21.82;45.53;100889.04;111532;1266;21901;-39
2023/04/27 00:35:04;;;;;;;;;1.00;1.00;;;;;21.82;45.37;100887.23;111918;1266;21415;-40
2023/04/27 00:37:31;;;;;;;;;1.00;1.00;;;;;21.81;45.45;100884.59;111578;1250;19714;-39
2023/04/27 00:39:58;;;;;;;;;1.00;1.00;;;;;21.81;45.38;100886.69;111929;1266;21785;-40
2023/04/27 00:42:26;;;;;;;;;1.00;1.00;;;;;21.81;45.40;100888.79;111599;1266;20127;-39
2023/04/27 00:44:53;;;;;;;;;1.00;1.00;;;;;21.82;45.25;100888.86;111943;1266;18725;-39
2023/04/27 00:47:21;;;;;;;;;1.00;1.00;;;;;21.81;45.28;100889.02;111567;1266;19645;-40
2023/04/27 00:49:48;;;;;;;;;1.00;1.00;;;;;21.81;45.30;100887.02;112007;1266;21490;-42
2023/04/27 00:52:16;;;;;;;;;1.00;1.00;;;;;21.81;45.19;100893.91;111635;1266;18739;-40
2023/04/27 00:54:43;;;;;;;;;1.00;1.00;;;;;21.82;45.30;100897.11;111966;1260;20709;-41
2023/04/27 00:57:10;;;;;;;;;1.00;1.00;;;;;21.81;45.33;100900.41;111665;1250;21625;-40
2023/04/27 00:59:38;;;;;;;;;1.00;1.00;;;;;21.81;45.23;100894.29;111999;1266;18712;-40
2023/04/27 01:02:05;;;;;;;;;1.00;1.00;;;;;21.81;45.30;100897.12;111657;1266;20719;-40
2023/04/27 01:04:33;;;;;;;;;1.00;1.00;;;;;21.80;45.28;100896.88;112056;1266;20294;-40
2023/04/27 01:07:01;;;;;;;;;1.00;1.00;;;;;21.81;45.27;100898.52;111687;1266;18716;-40
2023/04/27 01:09:29;;;;;;;;;1.00;1.00;;;;;21.80;45.32;100895.62;111895;1266;21867;-41
2023/04/27 01:11:57;;;;;;;;;1.00;1.00;;;;;21.81;45.26;100901.55;111561;1259;21526;-39
2023/04/27 01:14:24;;;;;;;;;1.00;1.00;;;;;21.82;45.19;100903.29;111822;1250;19558;-40
2023/04/27 01:16:52;;;;;;;;;1.50;1.50;;;;;21.82;45.20;100900.23;111494;1250;20564;-39
2023/04/27 01:19:19;;;;;;;;;1.00;1.00;;;;;21.82;45.16;100903.60;111855;1250;22177;-39
2023/04/27 01:21:46;;;;;;;;;1.50;1.00;;;;;21.82;45.15;100905.14;111546;1250;19611;-39
2023/04/27 01:24:14;;;;;;;;;1.00;1.00;;;;;21.81;45.20;100906.13;111890;1266;20807;-40
2023/04/27 01:26:41;;;;;;;;;1.00;1.00;;;;;21.80;45.20;100908.55;111550;1260;20104;-39
2023/04/27 01:29:09;;;;;;;;;1.00;1.00;;;;;21.81;45.12;100913.21;111902;1266;19568;-41
2023/04/27 01:31:37;;;;;;;;;1.00;1.00;;;;;21.81;45.13;100910.15;111486;1266;19445;-39
2023/04/27 01:34:05;;;;;;;;;1.00;1.00;;;;;21.80;45.18;100913.84;111803;1266;21519;-39
2023/04/27 01:36:32;;;;;;;;;1.00;1.00;;;;;21.80;45.17;100910.77;111503;1266;19143;-39
2023/04/27 01:39:00;;;;;;;;;1.00;1.00;;;;;21.80;45.26;100912.45;111743;1266;20695;-39
2023/04/27 01:41:27;;;;;;;;;1.00;1.00;;;;;21.79;45.18;100911.60;111540;1266;20467;-43
2023/04/27 01:43:55;;;;;;;;;1.00;1.00;;;;;21.78;45.33;100913.31;111775;1250;20715;-40
2023/04/27 01:46:22;;;;;;;;;1.00;1.00;;;;;21.80;45.05;100915.52;111434;1266;19366;-40
2023/04/27 01:48:49;;;;;;;;;1.00;1.00;;;;;21.79;45.11;100914.40;111814;1266;21495;-39
2023/04/27 01:51:17;;;;;;;;;2.00;1.00;;;;;21.79;45.09;100911.13;111492;1266;18636;-39
2023/04/27 01:53:44;;;;;;;;;1.00;1.00;;;;;21.79;45.16;100915.88;111841;1266;20732;-40
2023/04/27 01:56:12;;;;;;;;;1.00;1.00;;;;;21.80;45.02;100917.52;111460;1266;21506;-40
2023/04/27 01:58:39;;;;;;;;;1.00;1.00;;;;;21.79;45.09;100916.71;111855;1266;20110;-39
2023/04/27 02:01:06;;;;;;;;;1.00;1.00;;;;;21.78;45.03;100916.62;111519;1266;19335;-39
2023/04/27 02:03:34;;;;;;;;;2.00;2.00;;;;;21.77;45.15;100910.35;111877;1266;20086;-40
2023/04/27 02:06:01;;;;;;;;;1.00;1.00;;;;;21.78;45.14;100917.17;111533;1266;19562;-40
2023/04/27 02:08:29;;;;;;;;;1.00;1.00;;;;;21.78;45.23;100919.22;111918;1266;21947;-40
2023/04/27 02:10:56;;;;;;;;;1.00;1.00;;;;;21.78;45.15;100920.31;111557;1266;20289;-40
2023/04/27 02:13:23;;;;;;;;;1.00;1.00;;;;;21.78;45.02;100920.14;111959;1254;19654;-40
2023/04/27 02:15:51;;;;;;;;;1.00;1.00;;;;;21.77;45.09;100914.76;111569;1266;20709;-40
2023/04/27 02:18:19;;;;;;;;;1.00;1.00;;;;;21.77;45.08;100915.67;111972;1250;21843;-39
2023/04/27 02:20:46;;;;;;;;;1.00;1.00;;;;;21.77;45.15;100920.28;111573;1260;19196;-39
2023/04/27 02:23:13;;;;;;;;;1.00;1.00;;;;;21.77;45.28;100920.55;111974;1250;20777;-40
2023/04/27 02:25:45;;;;;;;;;2.00;1.00;;;;;21.77;45.09;100924.07;111585;1266;20205;-39
2023/04/27 02:28:12;;;;;;;;;1.00;1.00;;;;;21.77;45.01;100928.60;111590;1250;19263;-43
2023/04/27 02:30:40;;;;;;;;;1.00;1.00;;;;;21.77;45.04;100927.38;111738;1266;21765;-40
2023/04/27 02:33:07;;;;;;;;;1.00;1.00;;;;;21.77;44.97;100933.72;111575;1251;20235;-39
2023/04/27 02:35:35;;;;;;;;;1.00;1.00;;;;;21.76;45.12;100931.27;111740;1266;18888;-40
2023/04/27 02:38:02;;;;;;;;;1.00;1.00;;;;;21.76;44.84;100930.57;111530;1266;19588;-39
2023/04/27 02:40:30;;;;;;;;;2.00;1.00;;;;;21.76;44.91;100931.09;111759;1266;21499;-39
2023/04/27 02:42:57;;;;;;;;;1.00;1.00;;;;;21.75;45.09;100928.80;111417;1266;18671;-40
2023/04/27 02:45:24;;;;;;;;;1.00;1.00;;;;;21.76;44.73;100933.95;111793;1251;21952;-40
2023/04/27 02:47:52;;;;;;;;;1.00;1.00;;;;;21.76;44.99;100930.17;111484;1266;21504;-40
2023/04/27 02:50:19;;;;;;;;;1.00;1.00;;;;;21.76;44.88;100933.95;111844;1266;19509;-40
2023/04/27 02:52:47;;;;;;;;;1.00;1.00;;;;;21.76;45.05;100933.98;111484;1266;20735;-39
2023/04/27 02:55:14;;;;;;;;;1.00;1.00;;;;;21.75;44.96;100935.55;111889;1250;22734;-40
2023/04/27 02:57:41;;;;;;;;;1.00;1.00;;;;;21.75;44.96;100936.11;111521;1266;18722;-40
2023/04/27 03:00:09;;;;;;;;;1.00;1.00;;;;;21.75;45.01;100936.23;111905;1266;20674;-39
2023/04/27 03:02:37;;;;;;;;;1.00;1.00;;;;;21.75;44.96;100939.92;111471;1266;20089;-39
2023/04/27 03:05:04;;;;;;;;;1.00;1.00;;;;;21.74;44.94;100940.98;111840;1266;18709;-40
2023/04/27 03:07:32;;;;;;;;;1.00;1.00;;;;;21.74;44.91;100943.09;111483;1266;19339;-39
2023/04/27 03:09:59;;;;;;;;;1.50;1.00;;;;;21.74;45.02;100941.88;111812;1250;21595;-39
2023/04/27 03:12:27;;;;;;;;;1.00;1.00;;;;;21.75;44.92;100945.89;111456;1266;19528;-39
2023/04/27 03:14:54;;;;;;;;;1.00;1.00;;;;;21.75;44.81;100949.00;111848;1266;19306;-39
2023/04/27 03:17:22;;;;;;;;;1.00;1.00;;;;;21.74;44.93;100949.30;111492;1266;20052;-40
2023/04/27 03:19:49;;;;;;;;;1.00;1.00;;;;;21.74;44.86;100954.39;111823;1266;19646;-40
2023/04/27 03:22:16;;;;;;;;;1.00;1.00;;;;;21.74;45.00;100953.20;111515;1253;20671;-43
2023/04/27 03:24:44;;;;;;;;;1.00;1.00;;;;;21.74;44.85;100954.80;111939;1266;20271;-39
2023/04/27 03:27:11;;;;;;;;;1.00;1.00;;;;;21.74;44.99;100960.05;111556;1266;19607;-41
2023/04/27 03:29:39;;;;;;;;;1.00;1.00;;;;;21.73;44.77;100961.05;111905;1250;22652;-40
2023/04/27 03:32:06;;;;;;;;;1.00;1.00;;;;;21.74;44.89;100960.60;111556;1259;21430;-39
2023/04/27 03:34:34;;;;;;;;;1.00;1.00;;;;;21.74;44.98;100962.06;111966;1259;19565;-39
2023/04/27 03:37:01;;;;;;;;;1.00;1.00;;;;;21.74;44.97;100965.55;111538;1266;19641;-39
2023/04/27 03:39:29;;;;;;;;;1.00;1.00;;;;;21.73;44.91;100966.14;111902;1250;21536;-40
2023/04/27 03:41:56;;;;;;;;;1.00;1.00;;;;;21.73;44.80;100966.03;111564;1266;18691;-39
2023/04/27 03:44:24;;;;;;;;;2.00;1.00;;;;;21.73;44.80;100969.27;111931;1250;19248;-39
2023/04/27 03:46:51;;;;;;;;;1.00;1.00;;;;;21.74;44.93;100972.30;111577;1266;20166;-40
2023/04/27 03:49:18;;;;;;;;;1.00;1.00;;;;;21.73;44.89;100970.52;111966;1250;19646;-40
2023/04/27 03:51:46;;;;;;;;;1.00;1.00;;;;;21.73;44.85;100971.14;111593;1250;20845;-41
2023/04/27 03:54:13;;;;;;;;;1.00;1.00;;;;;21.73;44.86;100975.23;112043;1250;20123;-40
2023/04/27 03:56:41;;;;;;;;;1.00;1.00;;;;;21.72;44.89;100973.88;111588;1250;19690;-39
2023/04/27 03:59:08;;;;;;;;;1.00;1.00;;;;;21.73;44.77;100974.52;112012;1250;19393;-40
2023/04/27 04:01:36;;;;;;;;;1.00;1.00;;;;;21.75;44.92;100982.14;111606;1259;21572;-39
2023/04/27 04:04:03;;;;;;;;;1.00;1.00;;;;;21.74;44.91;100986.06;112061;1266;19641;-40
2023/04/27 04:06:31;;;;;;;;;1.00;1.00;;;;;21.74;44.72;100987.13;111630;1266;19320;-39
2023/04/27 04:08:58;;;;;;;;;1.00;1.00;;;;;21.73;44.84;100991.95;111998;1266;21634;-42
2023/04/27 04:11:26;;;;;;;;;1.00;1.00;;;;;21.74;44.72;100994.46;111652;1266;18678;-40
2023/04/27 04:13:53;;;;;;;;;1.00;1.00;;;;;21.74;44.84;100996.20;111997;1250;19329;-40
2023/04/27 04:16:21;;;;;;;;;1.00;1.00;;;;;21.74;44.86;100997.19;111612;1266;20106;-40
2023/04/27 04:18:48;;;;;;;;;1.00;1.00;;;;;21.74;44.85;100997.84;112023;1266;18768;-42
2023/04/27 04:21:16;;;;;;;;;2.00;2.00;;;;;21.75;44.64;101003.63;111587;1266;20873;-38
2023/04/27 04:23:43;;;;;;;;;1.00;1.00;;;;;21.75;44.72;101004.89;112043;1250;21538;-40
2023/04/27 04:26:12;;;;;;;;;1.00;1.00;;;;;21.75;44.65;101010.14;111538;1267;19592;-41
2023/04/27 04:28:39;;;;;;;;;1.00;1.00;;;;;21.76;44.68;101011.86;111795;1266;21854;-40
2023/04/27 04:31:08;;;;;;;;;1.00;1.00;;;;;21.75;44.75;101013.02;111475;1250;22570;-39
2023/04/27 04:33:35;;;;;;;;;1.00;1.00;;;;;21.74;44.67;101012.02;111637;1266;18749;-40
2023/04/27 04:36:03;;;;;;;;;1.67;1.67;;;;;21.73;44.72;101012.34;112023;1266;20735;-41
2023/04/27 04:38:31;;;;;;;;;1.00;1.00;;;;;21.74;44.74;101019.66;111654;1266;20253;-40
2023/04/27 04:40:59;;;;;;;;;1.00;1.00;;;;;21.75;44.70;101016.36;111935;1250;19642;-40
2023/04/27 04:43:27;;;;;;;;;1.00;1.00;;;;;21.75;44.78;101017.95;111552;1260;20712;-41
2023/04/27 04:45:54;;;;;;;;;2.00;2.00;;;;;21.76;44.87;101018.60;111804;1250;21490;-41
2023/04/27 04:48:22;;;;;;;;;1.00;1.00;;;;;21.75;44.64;101021.61;111525;1259;19581;-39
2023/04/27 04:50:50;;;;;;;;;1.00;1.00;;;;;21.76;44.82;101018.91;111719;1266;20689;-41
2023/04/27 04:53:18;;;;;;;;;2.00;2.00;;;;;21.77;44.95;101018.23;111622;1250;21497;-40
2023/04/27 04:55:46;;;;;;;;;2.00;1.00;;;;;21.77;45.16;101015.67;111739;1250;19640;-38
2023/04/27 04:58:13;;;;;;;;;1.00;1.00;;;;;21.78;44.97;101017.20;111987;1250;19328;-41
2023/04/27 05:00:40;;;;;;;;;1.00;1.00;;;;;21.80;45.18;101020.11;111621;1254;21426;-39
2023/04/27 05:03:08;;;;;;;;;1.00;1.00;;;;;21.83;45.34;101022.52;111953;1250;20785;-43
2023/04/27 05:05:35;;;;;;;;;2.00;1.00;;;;;21.85;45.32;101021.91;111670;1266;19488;-39
2023/04/27 05:08:03;;;;;;;;;1.00;1.00;;;;;21.86;45.78;101027.25;112010;1266;20126;-40
2023/04/27 05:10:30;;;;;;;;;1.00;1.00;;;;;21.87;45.99;101023.80;111659;1259;20657;-39
2023/04/27 05:12:58;;;;;;;;;2.00;2.00;;;;;21.92;45.99;101027.81;111928;1259;20834;-40
2023/04/27 05:15:25;;;;;;;;;1.00;1.00;;;;;21.96;46.35;101030.56;111751;1250;21572;-40
2023/04/27 05:17:53;;;;;;;;;2.00;2.00;;;;;22.01;46.84;101034.77;111634;1251;19686;-40
2023/04/27 05:20:20;;;;;;;;;1.00;1.00;;;;;22.02;46.95;101033.91;111686;1266;19552;-41
2023/04/27 05:22:47;;;;;;;;;1.50;1.50;;;;;22.02;47.08;101038.31;111832;1252;21682;-38
2023/04/27 05:25:15;;;;;;;;;72.50;59.00;;;;;22.02;47.29;101039.49;111747;1266;19456;-39
2023/04/27 05:27:42;;;;;;;;;67.67;56.00;;;;;22.04;47.41;101039.36;111599;1266;19475;-39
2023/04/27 05:30:10;;;;;;;;;;;;;;;22.07;47.76;101042.79;111748;1266;20202;-38
2023/04/27 05:32:38;;;;;;;;;29.00;27.00;;;;;22.11;48.22;101041.42;111566;1266;19898;-40
2023/04/27 05:35:05;;;;;;;;;31.00;24.67;;;;;22.17;48.14;101041.16;111630;1266;19471;-40
2023/04/27 05:37:33;;;;;;;;;24.00;24.00;;;;;22.19;47.99;101041.51;112073;1266;21246;-40
2023/04/27 05:40:00;;;;;;;;;22.00;20.00;;;;;22.19;47.99;101041.71;111635;1266;20003;-40
2023/04/27 05:42:28;;;;;;;;;17.33;17.33;;;;;22.18;48.10;101044.91;111969;1259;21930;-41
2023/04/27 05:44:55;;;;;;;;;14.50;13.00;;;;;22.17;47.95;101046.79;111693;1266;21346;-39
2023/04/27 05:47:23;;;;;;;;;17.50;14.00;;;;;22.16;47.93;101049.96;111929;1266;19046;-40
2023/04/27 05:49:50;;;;;;;;;15.00;14.00;;;;;22.17;47.78;101051.57;111733;1266;21946;-39
2023/04/27 05:52:17;;;;;;;;;11.00;11.00;;;;;22.16;47.53;101052.52;111627;1266;20631;-39
2023/04/27 05:54:45;;;;;;;;;12.00;12.00;;;;;22.16;47.72;101053.98;111754;1250;20075;-39
2023/04/27 05:57:12;;;;;;;;;8.00;8.00;;;;;22.16;47.41;101055.26;111458;1251;19447;-44
2023/04/27 05:59:40;;;;;;;;;11.50;10.00;;;;;22.19;47.26;101059.52;111787;1266;20151;-38
2023/04/27 06:02:07;;;;;;;;;10.00;10.00;;;;;22.21;47.37;101059.19;111467;1266;18626;-39
2023/04/27 06:04:35;;;;;;;;;8.00;7.00;;;;;22.22;47.42;101059.63;111774;1266;19465;-38
2023/04/27 06:07:03;;;;;;;;;5.00;5.00;;;;;22.22;47.27;101058.40;111645;1250;21581;-39
2023/04/27 06:09:30;;;;;;;;;5.00;5.00;;;;;22.23;47.18;101060.24;111703;1266;18513;-39
2023/04/27 06:11:58;;;;;;;;;7.00;5.00;;;;;22.24;46.86;101058.70;111864;1250;20622;-39
2023/04/27 06:14:25;;;;;;;;;5.00;5.00;;;;;22.25;47.04;101064.23;111659;1266;21503;-41
2023/04/27 06:16:53;;;;;;;;;6.33;5.00;;;;;22.26;47.10;101062.14;111984;1254;19568;-42
2023/04/27 06:19:20;;;;;;;;;7.00;5.00;;;;;22.26;46.71;101065.14;111680;1266;21956;-40
2023/04/27 06:21:48;;;;;;;;;4.00;4.00;;;;;22.28;46.69;101062.77;111841;1266;21496;-40
2023/04/27 06:24:15;;;;;;;;;4.00;4.00;;;;;22.28;46.72;101064.17;111706;1266;19584;-39
2023/04/27 06:26:42;;;;;;;;;4.00;3.00;;;;;22.29;46.47;101063.34;111634;1266;20731;-39
2023/04/27 06:29:10;;;;;;;;;4.00;3.00;;;;;22.30;46.57;101062.90;111753;1266;20320;-39
2023/04/27 06:31:37;;;;;;;;;4.00;4.00;;;;;22.32;46.47;101064.70;111542;1250;18955;-40
2023/04/27 06:34:05;;;;;;;;;2.00;2.00;;;;;22.33;46.42;101064.97;111720;1266;20959;-38
2023/04/27 06:36:32;;;;;;;;;2.00;2.00;;;;;22.34;46.35;101069.39;111656;1266;21516;-38
2023/04/27 06:39:00;;;;;;;;;4.00;2.00;;;;;22.34;46.24;101071.69;111772;1250;20926;-39
2023/04/27 06:41:27;;;;;;;;;2.00;2.00;;;;;22.35;46.15;101072.81;111702;1266;20717;-38
2023/04/27 06:43:55;;;;;;;;;4.00;2.00;;;;;22.36;46.13;101066.25;111762;1266;20114;-39
2023/04/27 06:46:22;;;;;;;;;2.00;2.00;;;;;22.37;46.19;101071.95;111549;1266;18718;-39
2023/04/27 06:48:51;;;;;;;;;4.50;4.00;;;;;22.39;46.10;101074.04;111772;1266;19373;-38
2023/04/27 06:51:18;;;;;;;;;4.00;4.00;;;;;22.40;45.95;101070.27;111966;1266;20463;-39
2023/04/27 06:53:46;;;;;;;;;4.00;4.00;;;;;22.40;45.94;101075.70;111628;1266;19515;-39
2023/04/27 06:56:13;;;;;;;;;5.00;5.00;;;;;22.42;45.92;101073.68;111989;1266;20726;-40
2023/04/27 06:58:41;;;;;;;;;5.00;5.00;;;;;22.43;45.81;101073.45;111631;1266;22504;-39
2023/04/27 07:01:08;;;;;;;;;5.00;5.00;;;;;22.44;45.72;101078.55;112048;1266;18775;-42
2023/04/27 07:03:36;;;;;;;;;4.00;4.00;;;;;22.46;45.82;101074.00;111651;1266;19622;-39
2023/04/27 07:06:03;;;;;;;;;4.00;4.00;;;;;22.47;45.65;101073.23;112048;1266;21622;-40
2023/04/27 07:08:30;;;;;;;;;4.00;4.00;;;;;22.48;45.69;101068.29;111680;1251;19619;-39
2023/04/27 07:10:58;;;;;;;;;4.00;4.00;;;;;22.48;45.71;101070.80;112066;1259;19516;-41
2023/04/27 07:13:25;;;;;;;;;5.00;4.00;;;;;22.51;45.70;101072.46;111677;1266;21480;-40
2023/04/27 07:15:53;;;;;;;;;4.50;4.50;;;;;22.48;45.51;101072.59;112108;1259;19461;-45
2023/04/27 07:18:20;;;;;;;;;4.00;4.00;;;;;22.43;45.35;101075.39;111703;1266;20947;-40
2023/04/27 07:20:48;;;;;;;;;4.00;4.00;;;;;22.36;45.34;101078.61;111948;1266;20122;-40
2023/04/27 07:23:16;;;;;;;;;5.00;5.00;;;;;22.29;44.93;101080.48;111718;1266;19556;-41
2023/04/27 07:25:44;;;;;;;;;4.00;4.00;;;;;22.26;44.47;101079.59;112051;1266;19227;-40
2023/04/27 07:28:11;;;;;;;;;4.33;4.00;;;;;22.25;44.36;101073.52;111550;1266;21481;-43
2023/04/27 07:30:39;;;;;;;;;4.00;4.00;;;;;22.26;44.14;101076.69;111936;1259;18875;-41
2023/04/27 07:33:06;;;;;;;;;5.00;4.00;;;;;22.23;43.62;101079.77;111573;1250;20859;-40
2023/04/27 07:35:34;;;;;;;;;5.00;4.67;;;;;22.22;43.14;101080.75;111936;1250;21547;-42
2023/04/27 07:38:01;;;;;;;;;5.00;5.00;;;;;22.20;42.15;101076.27;111565;1250;19585;-45
2023/04/27 07:40:29;;;;;;;;;7.00;5.00;;;;;22.18;41.99;101075.80;111910;1266;19301;-41
2023/04/27 07:42:57;;;;;;;;;4.00;4.00;;;;;22.16;41.78;101076.77;111559;1250;21652;-42
2023/04/27 07:45:30;;;;;;;;;4.00;4.00;;;;;22.07;41.51;101069.14;111823;1266;18929;-40
2023/04/27 07:47:59;;;;;;;;;4.00;4.00;;;;;21.98;40.21;101068.96;111969;1266;20747;-40
2023/04/27 07:50:27;;;;;;;;;4.00;4.00;;;;;21.99;39.57;101064.14;111590;1266;20344;-40
2023/04/27 07:52:54;;;;;;;;;4.00;4.00;;;;;22.02;39.88;101067.27;111847;1266;19594;-40
2023/04/27 07:55:22;;;;;;;;;5.00;4.00;;;;;22.06;40.20;101066.40;111499;1266;20735;-40
2023/04/27 07:57:49;;;;;;;;;2.00;2.00;;;;;22.07;40.31;101068.23;111828;1266;20105;-40
2023/04/27 08:00:17;;;;;;;;;4.00;4.00;;;;;22.09;40.47;101068.46;111506;1250;19637;-39
2023/04/27 08:02:44;;;;;;;;;4.00;4.00;;;;;22.08;40.70;101066.88;111917;1266;20636;-40
2023/04/27 08:05:12;;;;;;;;;4.00;2.00;;;;;22.07;41.23;101067.87;111529;1266;21577;-41
2023/04/27 08:07:39;;;;;;;;;2.00;2.00;;;;;22.10;41.36;101071.72;111846;1250;19538;-41
2023/04/27 08:10:07;;;;;;;;;4.00;4.00;;;;;22.10;41.67;101066.81;111490;1266;20701;-40
2023/04/27 08:12:34;;;;;;;;;4.00;2.00;;;;;22.11;41.82;101064.13;111887;1266;21382;-39
2023/04/27 08:15:10;;;;;;;;;2.00;2.00;;;;;22.20;42.03;101068.52;107041;1301;21989;-41
2023/04/27 08:17:39;;;;;;;;;2.00;2.00;;;;;22.22;42.04;101068.37;108757;1263;19936;-40
2023/04/27 08:20:07;;;;;;;;;4.00;4.00;;;;;22.16;42.31;101069.12;108731;1261;21754;-41
2023/04/27 08:22:34;;;;;;;;;2.00;2.00;;;;;22.13;42.52;101069.08;108743;1276;17844;-42
2023/04/27 08:25:03;;;;;;;;;2.00;2.00;;;;;22.13;42.67;101068.52;108744;1261;21328;-42
2023/04/27 08:27:30;;;;;;;;;2.00;2.00;;;;;22.12;42.79;101060.95;108778;1276;18154;-42
2023/04/27 08:29:59;;;;;;;;;2.00;2.00;;;;;22.11;43.07;101060.73;108614;1275;348535;-43
2023/04/27 08:32:27;;;;;;;;;2.00;2.00;;;;;22.10;43.10;101059.00;108920;1259;21688;-41
2023/04/27 08:34:54;;;;;;;;;2.00;2.00;;;;;22.08;43.23;101059.58;108848;1260;19895;-42
2023/04/27 08:37:22;;;;;;;;;2.00;2.00;;;;;22.09;43.42;101061.14;108812;1260;19235;-41
2023/04/27 08:39:49;;;;;;;;;2.00;2.00;;;;;22.07;43.56;101062.07;108829;1274;18376;-41
2023/04/27 08:42:17;;;;;;;;;2.00;2.00;;;;;22.08;43.68;101056.91;108855;1260;18190;-41
2023/04/27 08:44:44;;;;;;;;;2.00;2.00;;;;;22.07;43.75;101057.70;108867;1260;19158;-42
2023/04/27 08:47:11;;;;;;;;;2.00;2.00;;;;;22.07;43.76;101057.58;108825;1259;21219;-42
2023/04/27 08:49:40;;;;;;;;;2.00;2.00;;;;;22.06;43.92;101056.74;108827;1274;19593;-43
2023/04/27 08:52:07;;;;;;;;;1.00;1.00;;;;;22.07;44.39;101063.73;110041;1254;19225;-40
2023/04/27 08:54:36;;;;;;;;;4.00;2.00;;;;;22.08;44.87;101062.27;110014;1268;18984;-42
2023/04/27 08:57:03;;;;;;;;;2.00;2.00;;;;;22.08;45.70;101062.92;110026;1251;18184;-40
2023/04/27 08:59:31;;;;;;;;;2.00;2.00;;;;;22.05;46.14;101064.42;110048;1251;19234;-40
2023/04/27 09:01:59;;;;;;;;;1.00;1.00;;;;;22.03;46.17;101067.64;110038;1266;19727;-42
2023/04/27 09:04:26;;;;;;;;;1.50;1.50;;;;;22.03;46.22;101070.54;110039;1266;18178;-42
2023/04/27 09:06:54;;;;;;;;;2.00;2.00;;;;;22.03;46.17;101071.13;110041;1250;17936;-41
2023/04/27 09:09:22;;;;;;;;;2.00;2.00;;;;;22.02;45.95;101065.81;110044;1266;18432;-42
2023/04/27 09:11:50;;;;;;;;;1.50;1.50;;;;;22.02;45.85;101066.90;110049;1266;19557;-41
2023/04/27 09:14:17;;;;;;;;;1.00;1.00;;;;;22.00;45.71;101067.39;110040;1266;19078;-42
2023/04/27 09:16:45;;;;;;;;;2.00;2.00;;;;;22.00;45.59;101068.14;110027;1266;18401;-41
2023/04/27 09:19:12;;;;;;;;;1.00;1.00;;;;;22.00;45.68;101066.52;110041;1254;22273;-42
2023/04/27 09:21:41;;;;;;;;;1.33;1.33;;;;;22.00;45.59;101070.14;110017;1266;17719;-42
2023/04/27 09:24:09;;;;;;;;;2.00;1.50;;;;;21.99;45.54;101070.80;110047;1266;19538;-42
2023/04/27 09:26:36;;;;;;;;;2.00;2.00;;;;;21.99;45.47;101072.50;110035;1251;18149;-41
2023/04/27 09:29:04;;;;;;;;;1.00;1.00;;;;;21.99;45.42;101077.55;110014;1267;19102;-40
2023/04/27 09:31:31;;;;;;;;;1.00;1.00;;;;;21.98;45.25;101074.92;109999;1251;18385;-42
2023/04/27 09:33:59;;;;;;;;;1.00;1.00;;;;;21.97;45.28;101073.77;110034;1267;20012;-41
2023/04/27 09:36:26;;;;;;;;;2.00;1.00;;;;;21.97;45.14;101068.48;110022;1267;17780;-41
2023/04/27 09:38:54;;;;;;;;;1.00;1.00;;;;;21.97;45.22;101072.13;110037;1267;19954;-41
2023/04/27 09:41:21;;;;;;;;;1.00;1.00;;;;;21.97;45.23;101075.63;110043;1253;21811;-40
2023/04/27 09:43:49;;;;;;;;;1.00;1.00;;;;;21.98;44.94;101074.20;110045;1267;18421;-42
2023/04/27 09:46:16;;;;;;;;;2.00;2.00;;;;;21.99;44.81;101071.63;109954;1266;19981;-41
2023/04/27 09:48:44;;;;;;;;;1.00;1.00;;;;;21.97;45.07;101066.89;109999;1267;19595;-42
2023/04/27 09:51:11;;;;;;;;;1.00;1.00;;;;;21.97;44.78;101072.00;110025;1252;19432;-41
2023/04/27 09:53:39;;;;;;;;;1.50;1.50;;;;;21.97;44.74;101072.55;110007;1267;19355;-41
2023/04/27 09:56:07;;;;;;;;;1.00;1.00;;;;;21.96;44.79;101074.09;110016;1267;18229;-41
2023/04/27 09:58:34;;;;;;;;;1.00;1.00;;;;;21.97;44.68;101071.77;110022;1266;19090;-42
2023/04/27 10:01:02;;;;;;;;;1.50;1.50;;;;;21.98;44.68;101072.91;110006;1267;21666;-44
2023/04/27 10:03:29;;;;;;;;;1.00;1.00;;;;;21.99;44.81;101073.59;110038;1253;19959;-40
2023/04/27 10:05:57;;;;;;;;;1.50;1.50;;;;;21.99;44.94;101076.73;110028;1251;17806;-41
2023/04/27 10:08:24;;;;;;;;;2.00;2.00;;;;;22.00;45.06;101073.49;110072;1251;19091;-40
2023/04/27 10:10:52;;;;;;;;;1.00;1.00;;;;;22.01;44.90;101080.03;110017;1251;19621;-40
2023/04/27 10:13:19;;;;;;;;;1.00;1.00;;;;;21.99;45.10;101073.96;109997;1267;19167;-40
2023/04/27 10:15:46;;;;;;;;;4.00;1.00;;;;;22.00;45.06;101075.85;109944;1267;21727;-40
2023/04/27 10:18:15;;;;;;;;;2.00;2.00;;;;;21.99;44.88;101074.48;110031;1267;19102;-41
2023/04/27 10:20:42;;;;;;;;;2.67;2.00;;;;;22.00;44.92;101072.95;109644;1253;20786;-40
2023/04/27 10:23:09;;;;;;;;;2.00;2.00;;;;;22.01;44.82;101074.27;109643;1253;19749;-42
2023/04/27 10:25:37;;;;;;;;;1.50;1.00;;;;;22.01;44.74;101073.48;109609;1254;19638;-41
2023/04/27 10:28:06;;;;;;;;;1.00;1.00;;;;;22.03;44.78;101076.77;109604;1268;19178;-41
2023/04/27 10:30:34;;;;;;;;;1.00;1.00;;;;;22.02;44.78;101075.42;109581;1253;21685;-42
2023/04/27 10:33:02;;;;;;;;;2.00;1.00;;;;;22.04;44.95;101076.14;109642;1253;18205;-41
2023/04/27 10:35:29;;;;;;;;;2.00;2.00;;;;;22.01;44.77;101072.98;109678;1253;20483;-40
2023/04/27 10:37:56;;;;;;;;;2.00;2.00;;;;;22.00;44.58;101071.96;109633;1254;19902;-40
2023/04/27 10:40:24;;;;;;;;;1.00;1.00;;;;;22.00;44.42;101070.05;109623;1268;19122;-41
2023/04/27 10:42:51;;;;;;;;;2.00;2.00;;;;;21.99;44.72;101072.92;109604;1263;19293;-41
2023/04/27 10:45:19;;;;;;;;;2.00;2.00;;;;;21.99;44.73;101070.83;109633;1268;19993;-42
2023/04/27 10:47:46;;;;;;;;;2.00;2.00;;;;;21.99;44.78;101069.23;109650;1262;18195;-42
2023/04/27 10:50:14;;;;;;;;;1.00;1.00;;;;;21.99;44.76;101073.46;110015;1267;19169;-42
2023/04/27 10:52:42;;;;;;;;;2.00;2.00;;;;;21.99;44.72;101071.75;110049;1253;19771;-41
2023/04/27 10:55:09;;;;;;;;;2.00;2.00;;;;;22.00;44.82;101074.51;110007;1253;19698;-41
2023/04/27 10:57:36;;;;;;;;;2.00;2.00;;;;;22.01;44.53;101073.89;110047;1267;17813;-41
2023/04/27 11:00:06;;;;;;;;;1.00;1.00;;;;;22.01;44.63;101071.52;109982;1267;18428;-41
2023/04/27 11:02:34;;;;;;;;;2.00;2.00;;;;;22.01;44.86;101072.23;110041;1267;21877;-41
2023/04/27 11:05:06;;;;;;;;;2.00;2.00;;;;;22.27;44.97;101072.32;110028;1267;17795;-41
2023/04/27 11:07:33;;;;;;;;;1.00;1.00;;;;;22.44;44.61;101073.44;109939;1266;19381;-42
2023/04/27 11:10:01;;;;;;;;;2.00;2.00;;;;;22.28;44.68;101075.50;109977;1267;19633;-42
2023/04/27 11:12:28;;;;;;;;;5.00;4.00;;;;;22.60;45.28;101081.23;110041;1253;19302;-41
2023/04/27 11:14:55;;;;;;;;;5.00;5.00;;;;;22.40;45.68;101085.16;109982;1267;18373;-41
2023/04/27 11:17:23;;;;;;;;;5.00;5.00;;;;;22.30;46.66;101084.40;109983;1267;18284;-43